Decoded Metar for LFMK (Carcassonne in FRANCE) (IATA:CCF) | Meteo·Mobile Aviation Weather
aviador You're here:

LFMK Decoded Metar

Carcassonne in FRANCE
Report Time2019-07-21 17:30:00
UTC Time2019-07-21 17:52:46
Flight Rules vfr VFR
Wind300° at 06 kt
W.Decomp.*RWY 28: 5.6 kt HW 2.1 kt RCW
Visibility9999 m
Phenomena:N/A
Clouds:N/A
Expected CloudBase > 5,200 ft AGL from Temp-Dew spread
CeilingNone
Temp32°C (ISA +18)
Dew Point19°C (46% RH)
Heat Index33.5°C
QNH1019 hPa
Density Alt2,556 ft
Elevation427 ft
Report Wrong Elevation
Raw Report
METAR LFMK 211730Z AUTO 30006KT CAVOK 32/19 Q1019 NOSIG=

Extra information for LFMK:More info

Metar Taf Metar & Taf Last 4 Metars F.Rules Stats Wind Profile Meteogram Temp Stats Airport Information Weather charts Add Link Nearby VenuesMetar ALERT Operation Metar Decoded Social comments

AudeAéroServices
Aéroprakt A-22
Husky Dealer